Time,TemperatureF,DewpointF,PressureIn,WindDirection,WindDirectionDegrees,WindSpeedMPH,WindSpeedGustMPH,Humidity,HourlyPrecipIn,Conditions,Clouds,dailyrainin,SolarRadiationWatts/m^2,SoftwareType,DateUTC
2013-07-02 00:01:00,69.0,51.0,-100.00,ESE,110,4.0,7.0,52,0.00,,,0.00,0.000000,,2013-07-02 06:01:00,
2013-07-02 00:11:00,69.0,51.0,-100.00,ESE,110,4.0,7.0,52,0.00,,,0.00,0.000000,,2013-07-02 06:11:00,
2013-07-02 00:43:00,65.0,50.0,-100.00,SSE,154,3.0,7.0,59,0.00,,,-99.99,0.000000,,2013-07-02 06:43:00,
2013-07-02 00:53:00,65.0,50.0,-100.00,SSE,154,3.0,7.0,59,0.00,,,-99.99,0.000000,,2013-07-02 06:53:00,
2013-07-02 01:01:00,65.0,50.0,-100.00,SSE,154,3.0,7.0,59,0.00,,,-99.99,0.000000,,2013-07-02 07:01:00,
2013-07-02 01:11:00,65.0,50.0,-100.00,SSE,154,3.0,7.0,59,0.00,,,-99.99,0.000000,,2013-07-02 07:11:00,
2013-07-02 02:44:00,60.0,51.0,-100.00,East,81,2.0,5.0,71,-99.99,,,-99.99,0.000000,,2013-07-02 08:44:00,
2013-07-02 02:53:00,60.0,51.0,-100.00,East,81,2.0,5.0,71,-99.99,,,-99.99,0.000000,,2013-07-02 08:53:00,
2013-07-02 03:01:00,60.0,51.0,-100.00,East,81,2.0,5.0,71,-99.99,,,-99.99,0.000000,,2013-07-02 09:01:00,
2013-07-02 03:11:00,60.0,51.0,-100.00,East,81,2.0,5.0,71,-99.99,,,-99.99,0.000000,,2013-07-02 09:11:00,
2013-07-02 03:43:00,56.0,51.0,-100.00,East,85,3.0,5.0,83,0.00,,,0.00,0.000000,,2013-07-02 09:43:00,
2013-07-02 03:52:00,56.0,51.0,-100.00,East,85,3.0,5.0,83,0.00,,,0.00,0.000000,,2013-07-02 09:52:00,
2013-07-02 04:44:00,56.0,52.0,-100.00,SSE,162,2.0,5.0,87,0.00,,,0.00,0.000000,,2013-07-02 10:44:00,
2013-07-02 04:52:00,56.0,52.0,-100.00,SSE,162,2.0,5.0,87,0.00,,,0.00,0.000000,,2013-07-02 10:52:00,
2013-07-02 05:01:00,56.0,52.0,-100.00,SSE,162,2.0,5.0,87,0.00,,,0.00,0.000000,,2013-07-02 11:01:00,
2013-07-02 05:11:00,56.0,52.0,-100.00,SSE,162,2.0,5.0,87,0.00,,,0.00,0.000000,,2013-07-02 11:11:00,
2013-07-02 05:42:00,55.0,49.0,-100.00,North,6,0.0,4.0,80,0.00,,,0.00,0.000000,,2013-07-02 11:42:00,
2013-07-02 05:52:00,55.0,49.0,-100.00,North,6,0.0,4.0,80,0.00,,,0.00,0.000000,,2013-07-02 11:52:00,
2013-07-02 06:01:00,55.0,49.0,-100.00,North,6,0.0,4.0,80,0.00,,,0.00,0.000000,,2013-07-02 12:01:00,
2013-07-02 06:11:00,55.0,49.0,-100.00,North,6,0.0,4.0,80,0.00,,,0.00,0.000000,,2013-07-02 12:11:00,
2013-07-02 06:43:00,53.0,48.0,-100.00,SW,235,0.0,0.0,82,0.00,,,0.00,6.000000,,2013-07-02 12:43:00,
2013-07-02 06:52:00,53.0,48.0,-100.00,SW,235,0.0,0.0,82,0.00,,,0.00,6.000000,,2013-07-02 12:52:00,
2013-07-02 07:01:00,53.0,48.0,-100.00,SW,235,0.0,0.0,82,0.00,,,0.00,6.000000,,2013-07-02 13:01:00,
2013-07-02 07:11:00,53.0,48.0,-100.00,SW,235,0.0,0.0,82,0.00,,,0.00,6.000000,,2013-07-02 13:11:00,
2013-07-02 07:43:00,55.0,52.0,-100.00,NE,46,0.0,0.0,89,0.00,,,0.00,38.000000,,2013-07-02 13:43:00,
2013-07-02 07:52:00,55.0,52.0,-100.00,NE,46,0.0,0.0,89,0.00,,,0.00,38.000000,,2013-07-02 13:52:00,
2013-07-02 08:01:00,55.0,52.0,-100.00,NE,46,0.0,0.0,89,0.00,,,0.00,38.000000,,2013-07-02 14:01:00,
2013-07-02 08:11:00,55.0,52.0,-100.00,NE,46,0.0,0.0,89,0.00,,,0.00,38.000000,,2013-07-02 14:11:00,
2013-07-02 08:43:00,64.0,56.0,-100.00,WNW,288,1.0,2.0,75,0.00,,,-99.99,264.000000,,2013-07-02 14:43:00,
2013-07-02 08:53:00,64.0,56.0,-100.00,WNW,288,1.0,2.0,75,0.00,,,-99.99,264.000000,,2013-07-02 14:53:00,
2013-07-02 09:02:00,64.0,56.0,-100.00,WNW,288,1.0,2.0,75,0.00,,,-99.99,264.000000,,2013-07-02 15:02:00,
2013-07-02 09:11:00,64.0,56.0,-100.00,WNW,288,1.0,2.0,75,0.00,,,-99.99,264.000000,,2013-07-02 15:11:00,
2013-07-02 09:44:00,71.0,58.0,-100.00,NW,319,0.0,1.0,63,0.00,,,0.00,464.000000,,2013-07-02 15:44:00,
2013-07-02 09:53:00,71.0,58.0,-100.00,NW,319,0.0,1.0,63,0.00,,,0.00,464.000000,,2013-07-02 15:53:00,
2013-07-02 10:01:00,71.0,58.0,-100.00,NW,319,0.0,1.0,63,0.00,,,0.00,464.000000,,2013-07-02 16:01:00,
2013-07-02 10:11:00,71.0,58.0,-100.00,NW,319,0.0,1.0,63,0.00,,,0.00,464.000000,,2013-07-02 16:11:00,
2013-07-02 10:43:00,74.0,59.0,-100.00,WSW,245,3.0,5.0,60,0.00,,,0.00,599.000000,,2013-07-02 16:43:00,
2013-07-02 10:52:00,74.0,59.0,-100.00,WSW,245,3.0,5.0,60,0.00,,,0.00,599.000000,,2013-07-02 16:52:00,
2013-07-02 11:02:00,74.0,59.0,-100.00,WSW,245,3.0,5.0,60,0.00,,,0.00,599.000000,,2013-07-02 17:02:00,
2013-07-02 11:11:00,74.0,59.0,-100.00,WSW,245,3.0,5.0,60,0.00,,,0.00,599.000000,,2013-07-02 17:11:00,
2013-07-02 11:43:00,80.0,61.0,-100.00,West,269,4.0,6.0,53,0.00,,,0.00,755.000000,,2013-07-02 17:43:00,
2013-07-02 11:53:00,80.0,61.0,-100.00,West,269,4.0,6.0,53,0.00,,,0.00,755.000000,,2013-07-02 17:53:00,
2013-07-02 12:02:00,80.0,61.0,-100.00,West,269,4.0,6.0,53,0.00,,,0.00,755.000000,,2013-07-02 18:02:00,
2013-07-02 12:11:00,80.0,61.0,-100.00,West,269,4.0,6.0,53,0.00,,,0.00,755.000000,,2013-07-02 18:11:00,
2013-07-02 12:43:00,81.0,60.0,-100.00,WSW,247,4.0,6.0,49,0.00,,,0.00,667.000000,,2013-07-02 18:43:00,
2013-07-02 12:53:00,81.0,60.0,-100.00,WSW,247,4.0,6.0,49,0.00,,,0.00,667.000000,,2013-07-02 18:53:00,
2013-07-02 13:01:00,81.0,60.0,-100.00,WSW,247,4.0,6.0,49,0.00,,,0.00,667.000000,,2013-07-02 19:01:00,
2013-07-02 13:11:00,81.0,60.0,-100.00,WSW,247,4.0,6.0,49,0.00,,,0.00,667.000000,,2013-07-02 19:11:00,
2013-07-02 13:43:00,89.0,59.0,-100.00,NNW,338,3.0,7.0,36,0.00,,,0.00,960.000000,,2013-07-02 19:43:00,
2013-07-02 13:53:00,89.0,59.0,-100.00,NNW,338,3.0,7.0,36,0.00,,,0.00,960.000000,,2013-07-02 19:53:00,
2013-07-02 14:01:00,89.0,59.0,-100.00,NNW,338,3.0,7.0,36,0.00,,,0.00,960.000000,,2013-07-02 20:01:00,
2013-07-02 14:11:00,89.0,59.0,-100.00,NNW,338,3.0,7.0,36,0.00,,,0.00,960.000000,,2013-07-02 20:11:00,
2013-07-02 14:43:00,90.0,50.0,-100.00,WNW,293,4.0,7.0,26,0.00,,,0.00,779.000000,,2013-07-02 20:43:00,
2013-07-02 14:52:00,90.0,50.0,-100.00,WNW,293,4.0,7.0,26,0.00,,,0.00,779.000000,,2013-07-02 20:52:00,
2013-07-02 15:02:00,90.0,50.0,-100.00,WNW,293,4.0,7.0,26,0.00,,,0.00,779.000000,,2013-07-02 21:02:00,
2013-07-02 15:11:00,90.0,50.0,-100.00,WNW,293,4.0,7.0,26,0.00,,,0.00,779.000000,,2013-07-02 21:11:00,
2013-07-02 15:44:00,92.0,46.0,-100.00,North,352,4.0,8.0,21,0.00,,,0.00,1020.000000,,2013-07-02 21:44:00,
2013-07-02 15:52:00,92.0,46.0,-100.00,North,352,4.0,8.0,21,0.00,,,0.00,1020.000000,,2013-07-02 21:52:00,
2013-07-02 16:01:00,92.0,46.0,-100.00,North,352,4.0,8.0,21,0.00,,,0.00,1020.000000,,2013-07-02 22:01:00,
2013-07-02 16:11:00,92.0,46.0,-100.00,North,352,4.0,8.0,21,0.00,,,0.00,1020.000000,,2013-07-02 22:11:00,
2013-07-02 16:43:00,94.0,51.0,-100.00,WSW,248,2.0,8.0,23,0.00,,,0.00,761.000000,,2013-07-02 22:43:00,
2013-07-02 16:53:00,94.0,51.0,-100.00,WSW,248,2.0,8.0,23,0.00,,,0.00,761.000000,,2013-07-02 22:53:00,
2013-07-02 17:01:00,94.0,51.0,-100.00,WSW,248,2.0,8.0,23,0.00,,,0.00,761.000000,,2013-07-02 23:01:00,
2013-07-02 17:11:00,94.0,51.0,-100.00,WSW,248,2.0,8.0,23,0.00,,,0.00,761.000000,,2013-07-02 23:11:00,
2013-07-02 17:44:00,94.0,48.0,-100.00,WSW,255,4.0,9.0,21,0.00,,,0.00,778.000000,,2013-07-02 23:44:00,
2013-07-02 17:52:00,94.0,48.0,-100.00,WSW,255,4.0,9.0,21,0.00,,,0.00,778.000000,,2013-07-02 23:52:00,
2013-07-02 18:01:00,94.0,48.0,-100.00,WSW,255,4.0,9.0,21,0.00,,,0.00,778.000000,,2013-07-03 00:01:00,
2013-07-02 18:11:00,94.0,48.0,-100.00,WSW,255,4.0,9.0,21,0.00,,,0.00,778.000000,,2013-07-03 00:11:00,
2013-07-02 18:44:00,93.0,47.0,-100.00,WNW,286,5.0,7.0,21,0.00,,,0.00,603.000000,,2013-07-03 00:44:00,
2013-07-02 18:52:00,93.0,47.0,-100.00,WNW,286,5.0,7.0,21,0.00,,,0.00,603.000000,,2013-07-03 00:52:00,
2013-07-02 19:01:00,93.0,47.0,-100.00,WNW,286,5.0,7.0,21,0.00,,,0.00,603.000000,,2013-07-03 01:01:00,
2013-07-02 19:11:00,93.0,47.0,-100.00,WNW,286,5.0,7.0,21,0.00,,,0.00,603.000000,,2013-07-03 01:11:00,
2013-07-02 19:43:00,91.0,49.0,-100.00,NNW,339,5.0,9.0,24,0.00,,,0.00,410.000000,,2013-07-03 01:43:00,
2013-07-02 19:59:00,91.0,49.0,-100.00,NNW,339,5.0,9.0,24,0.00,,,0.00,410.000000,,2013-07-03 01:59:00,
2013-07-02 20:12:00,91.0,49.0,-100.00,NNW,339,5.0,9.0,24,0.00,,,0.00,410.000000,,2013-07-03 02:12:00,
2013-07-02 21:02:00,85.0,61.0,-100.00,NW,306,3.0,7.0,45,0.00,,,0.00,173.000000,,2013-07-03 03:02:00,
2013-07-02 21:49:00,77.0,53.0,-100.00,South,177,6.0,9.0,43,0.00,,,0.00,55.000000,,2013-07-03 03:49:00,
2013-07-02 21:58:00,77.0,53.0,-100.00,South,177,6.0,9.0,43,0.00,,,0.00,55.000000,,2013-07-03 03:58:00,
2013-07-02 22:01:00,77.0,53.0,-100.00,South,177,6.0,9.0,43,0.00,,,0.00,55.000000,,2013-07-03 04:01:00,
2013-07-02 22:11:00,77.0,53.0,-100.00,South,177,6.0,9.0,43,0.00,,,0.00,55.000000,,2013-07-03 04:11:00,
2013-07-02 22:43:00,76.0,49.0,-100.00,ESE,118,6.0,12.0,38,0.00,,,0.00,4.000000,,2013-07-03 04:43:00,
2013-07-02 22:52:00,76.0,49.0,-100.00,ESE,118,6.0,12.0,38,0.00,,,0.00,4.000000,,2013-07-03 04:52:00,
2013-07-02 23:01:00,76.0,49.0,-100.00,ESE,118,6.0,12.0,38,0.00,,,0.00,4.000000,,2013-07-03 05:01:00,
2013-07-02 23:11:00,76.0,49.0,-100.00,ESE,118,6.0,12.0,38,0.00,,,0.00,4.000000,,2013-07-03 05:11:00,
2013-07-02 23:48:00,71.0,51.0,-100.00,East,85,3.0,8.0,49,0.00,,,0.00,0.000000,,2013-07-03 05:48:00,